Time;durP1;ratioP1;P1;durP2;ratioP2;P2;SDS_P1;SDS_P2;PMS_P1;PMS_P2;Temp;Humidity;BMP_temperature;BMP_pressure;BME280_temperature;BME280_humidity;BME280_pressure;Samples;Min_cycle;Max_cycle;Signal;HPM_P1;HPM_P2
2021/05/24 00:00:42;;;;;;;2.15;0.68;;;;;13.50;100464.00;;;;5065872;28;20540;-68
2021/05/24 00:03:09;;;;;;;2.05;0.52;;;;;13.50;100476.00;;;;5066693;28;20020;-71
2021/05/24 00:05:37;;;;;;;1.73;0.73;;;;;13.40;100464.00;;;;5066668;28;20094;-70
2021/05/24 00:08:04;;;;;;;3.00;0.50;;;;;13.30;100475.00;;;;5066517;28;20028;-67
2021/05/24 00:10:33;;;;;;;1.67;0.77;;;;;13.30;100478.00;;;;5066582;28;20040;-68
2021/05/24 00:13:03;;;;;;;1.23;0.70;;;;;13.20;100472.00;;;;5065478;28;20025;-69
2021/05/24 00:15:35;;;;;;;2.10;0.82;;;;;13.20;100494.00;;;;5066866;28;20032;-68
2021/05/24 00:18:03;;;;;;;5.43;0.60;;;;;13.20;100495.00;;;;5066471;28;20420;-70
2021/05/24 00:20:33;;;;;;;3.75;0.80;;;;;13.10;100476.00;;;;5066186;28;20016;-68
2021/05/24 00:23:00;;;;;;;1.50;0.60;;;;;13.00;100490.00;;;;5065858;28;20090;-68
2021/05/24 00:25:29;;;;;;;1.05;0.55;;;;;13.10;100497.00;;;;5065682;28;20035;-69
2021/05/24 00:28:00;;;;;;;2.05;0.60;;;;;13.10;100486.00;;;;5066013;28;20028;-69
2021/05/24 00:30:32;;;;;;;1.53;0.60;;;;;13.10;100485.00;;;;5065983;28;20086;-70
2021/05/24 00:33:03;;;;;;;1.95;0.75;;;;;13.00;100482.00;;;;5065741;28;20253;-69
2021/05/24 00:35:30;;;;;;;8.57;2.17;;;;;13.00;100511.00;;;;5066179;28;20060;-69
2021/05/24 00:37:57;;;;;;;1.25;0.70;;;;;12.90;100511.00;;;;5066082;28;20031;-69
2021/05/24 00:40:24;;;;;;;0.93;0.45;;;;;12.80;100514.00;;;;5066079;28;20059;-71
2021/05/24 00:42:51;;;;;;;2.05;0.73;;;;;12.90;100504.00;;;;5064903;28;20024;-69
2021/05/24 00:45:18;;;;;;;3.10;0.70;;;;;12.90;100521.00;;;;5064302;28;20375;-72
2021/05/24 00:47:45;;;;;;;1.50;0.70;;;;;13.00;100505.00;;;;5053436;28;20143;-69
2021/05/24 00:50:12;;;;;;;1.33;0.50;;;;;13.10;100506.00;;;;5065168;28;20027;-69
2021/05/24 00:52:39;;;;;;;1.30;0.50;;;;;13.20;100531.00;;;;5064563;28;20024;-71
2021/05/24 00:55:07;;;;;;;3.92;0.60;;;;;13.20;100512.00;;;;5065512;28;20024;-71
2021/05/24 00:57:34;;;;;;;4.22;0.50;;;;;13.20;100530.00;;;;5065165;28;20425;-70
2021/05/24 01:00:01;;;;;;;0.82;0.38;;;;;13.30;100530.00;;;;5065675;28;20035;-69
2021/05/24 01:02:27;;;;;;;2.03;0.50;;;;;13.30;100536.00;;;;5065721;28;20510;-69
2021/05/24 01:04:54;;;;;;;0.45;0.28;;;;;13.40;100524.00;;;;5065417;28;20032;-69
2021/05/24 01:07:21;;;;;;;2.15;0.30;;;;;13.30;100536.00;;;;5066029;28;20024;-69
2021/05/24 01:09:48;;;;;;;2.22;0.50;;;;;13.30;100541.00;;;;5065849;28;20017;-70
2021/05/24 01:12:15;;;;;;;0.82;0.40;;;;;13.30;100525.00;;;;5065898;28;20116;-71
2021/05/24 01:14:43;;;;;;;1.33;0.55;;;;;13.30;100548.00;;;;5065591;28;20074;-71
2021/05/24 01:17:09;;;;;;;1.83;0.60;;;;;13.30;100536.00;;;;5065250;28;20021;-70
2021/05/24 01:19:44;;;;;;;2.28;0.73;;;;;13.30;100541.00;;;;5065068;28;20032;-69
2021/05/24 01:22:16;;;;;;;1.73;1.02;;;;;13.30;100536.00;;;;5065927;28;20024;-69
2021/05/24 01:24:43;;;;;;;0.93;0.30;;;;;13.30;100530.00;;;;5065743;28;20491;-69
2021/05/24 01:27:10;;;;;;;0.50;0.40;;;;;13.30;100547.00;;;;5069806;28;20199;-68
2021/05/24 01:29:37;;;;;;;0.82;0.38;;;;;13.40;100539.00;;;;5069337;28;20028;-71
2021/05/24 01:32:05;;;;;;;1.80;0.40;;;;;13.30;100532.00;;;;5069737;28;20028;-70
2021/05/24 01:34:34;;;;;;;3.53;0.50;;;;;13.30;100534.00;;;;5069882;28;20459;-70
2021/05/24 01:37:02;;;;;;;1.98;0.68;;;;;13.30;100546.00;;;;5069739;28;20112;-71
2021/05/24 01:39:29;;;;;;;2.33;0.60;;;;;13.40;100522.00;;;;5069941;28;20115;-70
2021/05/24 01:41:56;;;;;;;1.45;0.60;;;;;13.30;100529.00;;;;5069689;28;20103;-68
2021/05/24 01:44:40;;;;;;;1.80;0.40;;;;;13.30;100525.00;;;;5068367;28;20568;-71
2021/05/24 01:47:08;;;;;;;3.85;0.60;;;;;13.30;100525.00;;;;5067753;28;20115;-67
2021/05/24 01:49:36;;;;;;;1.23;0.50;;;;;13.40;100533.00;;;;5069088;28;20024;-70
2021/05/24 01:52:05;;;;;;;3.75;0.50;;;;;13.30;100531.00;;;;5069210;28;20025;-70
2021/05/24 01:54:32;;;;;;;0.40;0.30;;;;;13.40;100543.00;;;;5069045;28;20031;-69
2021/05/24 01:56:59;;;;;;;0.90;0.50;;;;;13.40;100527.00;;;;5068740;28;20062;-70
2021/05/24 01:59:26;;;;;;;0.75;0.35;;;;;13.40;100522.00;;;;5068801;28;20032;-71
2021/05/24 02:01:53;;;;;;;2.17;0.70;;;;;13.40;100537.00;;;;5069336;28;20032;-71
2021/05/24 02:04:19;;;;;;;1.15;0.50;;;;;13.40;100539.00;;;;5068868;28;20135;-69
2021/05/24 02:06:46;;;;;;;3.25;0.65;;;;;13.40;100547.00;;;;5069366;28;20035;-70
2021/05/24 02:09:12;;;;;;;3.22;0.57;;;;;13.30;100537.00;;;;5068592;28;20032;-70
2021/05/24 02:11:40;;;;;;;1.23;0.40;;;;;13.30;100544.00;;;;5068600;28;20133;-71
2021/05/24 02:14:06;;;;;;;2.42;0.30;;;;;13.30;100537.00;;;;5068963;28;20040;-69
2021/05/24 02:16:44;;;;;;;0.13;0.13;;;;;13.30;100545.00;;;;5068348;28;20028;-68
2021/05/24 02:19:13;;;;;;;3.22;0.50;;;;;13.40;100544.00;;;;5068410;28;20021;-70
2021/05/24 02:21:40;;;;;;;2.38;0.52;;;;;13.30;100547.00;;;;5068496;28;20476;-70
2021/05/24 02:24:09;;;;;;;2.50;0.57;;;;;13.30;100536.00;;;;5068509;28;20031;-72
2021/05/24 02:26:36;;;;;;;0.35;0.30;;;;;13.30;100530.00;;;;5069120;28;20026;-69
2021/05/24 02:29:05;;;;;;;2.30;0.40;;;;;13.40;100526.00;;;;5068161;28;20050;-69
2021/05/24 02:31:32;;;;;;;0.63;0.30;;;;;13.30;100536.00;;;;5068605;28;20074;-68
2021/05/24 02:33:59;;;;;;;1.83;0.40;;;;;13.30;100535.00;;;;5066804;28;20376;-69
2021/05/24 02:36:27;;;;;;;1.17;0.40;;;;;13.20;100524.00;;;;5067281;28;20025;-70
2021/05/24 02:38:54;;;;;;;2.33;0.50;;;;;13.20;100537.00;;;;5068333;28;20016;-70
2021/05/24 02:41:21;;;;;;;2.72;0.77;;;;;13.10;100549.00;;;;5068368;28;20078;-70
2021/05/24 02:43:48;;;;;;;1.45;0.45;;;;;13.20;100535.00;;;;5068260;28;20032;-69
2021/05/24 02:46:14;;;;;;;2.53;0.73;;;;;13.20;100531.00;;;;5068073;28;20024;-69
2021/05/24 02:48:41;;;;;;;0.52;0.30;;;;;13.20;100542.00;;;;5067703;28;20110;-69
2021/05/24 02:51:08;;;;;;;1.42;0.50;;;;;13.10;100530.00;;;;5067392;28;20532;-69
2021/05/24 02:53:35;;;;;;;0.43;0.30;;;;;13.20;100546.00;;;;5068632;28;20107;-68
2021/05/24 02:56:02;;;;;;;1.40;0.40;;;;;13.20;100529.00;;;;5067996;28;20714;-67
2021/05/24 02:58:28;;;;;;;2.95;0.75;;;;;13.20;100541.00;;;;5068101;28;20112;-70
2021/05/24 03:00:55;;;;;;;0.68;0.50;;;;;13.10;100531.00;;;;5067497;28;20023;-69
2021/05/24 03:03:23;;;;;;;1.80;0.77;;;;;13.10;100535.00;;;;5068213;28;20029;-67
2021/05/24 03:05:52;;;;;;;2.20;0.80;;;;;13.00;100540.00;;;;5067321;28;20048;-68
2021/05/24 03:08:18;;;;;;;1.73;0.73;;;;;13.00;100534.00;;;;5067873;28;20029;-70
2021/05/24 03:10:45;;;;;;;2.95;0.70;;;;;13.00;100540.00;;;;5067682;28;20035;-68
2021/05/24 03:13:11;;;;;;;2.35;0.82;;;;;13.00;100536.00;;;;5067673;28;20028;-67
2021/05/24 03:15:38;;;;;;;2.70;0.60;;;;;13.00;100541.00;;;;5067711;28;20078;-70
2021/05/24 03:18:04;;;;;;;0.77;0.40;;;;;13.00;100549.00;;;;5067175;28;20020;-72
2021/05/24 03:20:31;;;;;;;2.20;0.68;;;;;13.00;100539.00;;;;5067665;28;20024;-69
2021/05/24 03:22:58;;;;;;;1.10;0.35;;;;;13.00;100540.00;;;;5067325;28;20017;-69
2021/05/24 03:25:24;;;;;;;1.60;0.60;;;;;13.00;100534.00;;;;5067677;28;20032;-70
2021/05/24 03:27:51;;;;;;;2.05;0.50;;;;;12.90;100532.00;;;;5067536;28;20501;-69
2021/05/24 03:30:19;;;;;;;4.25;0.63;;;;;12.90;100530.00;;;;5067157;28;20055;-68
2021/05/24 03:32:46;;;;;;;0.82;0.50;;;;;12.90;100532.00;;;;5066560;28;20058;-68
2021/05/24 03:35:13;;;;;;;0.98;0.50;;;;;12.90;100524.00;;;;5067455;28;20020;-68
2021/05/24 03:37:40;;;;;;;3.53;0.50;;;;;12.90;100545.00;;;;5067728;28;20055;-68
2021/05/24 03:40:09;;;;;;;1.65;0.60;;;;;12.90;100537.00;;;;5067002;28;20116;-70
2021/05/24 03:42:36;;;;;;;4.13;0.70;;;;;12.80;100537.00;;;;5066974;28;20092;-70
2021/05/24 03:45:05;;;;;;;1.17;0.50;;;;;12.80;100533.00;;;;5067271;28;20066;-68
2021/05/24 03:47:32;;;;;;;2.63;0.75;;;;;12.70;100527.00;;;;5066184;28;20131;-70
2021/05/24 03:49:58;;;;;;;0.70;0.40;;;;;12.70;100511.00;;;;5066879;28;20031;-69
2021/05/24 03:52:25;;;;;;;0.98;0.68;;;;;12.70;100525.00;;;;5066684;28;20533;-71
2021/05/24 03:54:52;;;;;;;1.33;0.70;;;;;12.70;100533.00;;;;5066339;28;20035;-69
2021/05/24 03:57:18;;;;;;;4.82;0.50;;;;;12.80;100546.00;;;;5066490;28;20475;-69
2021/05/24 03:59:45;;;;;;;1.52;0.70;;;;;12.80;100535.00;;;;5065957;28;20056;-67
2021/05/24 04:02:11;;;;;;;1.10;0.60;;;;;12.70;100526.00;;;;5066616;28;20507;-67
2021/05/24 04:04:39;;;;;;;3.33;0.93;;;;;12.70;100549.00;;;;5066652;28;20020;-71
2021/05/24 04:07:08;;;;;;;2.85;0.65;;;;;12.70;100550.00;;;;5066522;28;20020;-71
2021/05/24 04:09:35;;;;;;;1.73;0.50;;;;;12.70;100539.00;;;;5066138;28;20103;-68
2021/05/24 04:12:01;;;;;;;1.02;0.50;;;;;12.70;100528.00;;;;5067043;28;20024;-69
2021/05/24 04:14:28;;;;;;;0.70;0.40;;;;;12.70;100547.00;;;;5066060;28;20029;-70
2021/05/24 04:16:55;;;;;;;1.65;0.60;;;;;12.60;100548.00;;;;5066595;28;20028;-68
2021/05/24 04:19:22;;;;;;;3.08;0.60;;;;;12.70;100546.00;;;;5065830;28;20033;-71
2021/05/24 04:21:48;;;;;;;1.05;0.52;;;;;12.60;100543.00;;;;5066214;28;20442;-68
2021/05/24 04:24:15;;;;;;;1.15;0.50;;;;;12.60;100534.00;;;;5066427;28;20024;-69
2021/05/24 04:26:42;;;;;;;0.68;0.40;;;;;12.60;100538.00;;;;5066266;28;20016;-69
2021/05/24 04:29:09;;;;;;;1.65;0.68;;;;;12.60;100538.00;;;;5065745;28;20558;-71
2021/05/24 04:31:36;;;;;;;1.30;0.60;;;;;12.60;100547.00;;;;5065846;28;20027;-69
2021/05/24 04:34:03;;;;;;;1.58;0.60;;;;;12.60;100540.00;;;;5065844;28;20020;-71
2021/05/24 04:36:30;;;;;;;4.43;0.80;;;;;12.60;100532.00;;;;5066297;28;20035;-68
2021/05/24 04:38:56;;;;;;;0.98;0.60;;;;;12.60;100538.00;;;;5065031;28;20356;-70
2021/05/24 04:41:23;;;;;;;3.33;0.80;;;;;12.60;100543.00;;;;5065396;28;20356;-69
2021/05/24 04:43:52;;;;;;;0.90;0.60;;;;;12.60;100551.00;;;;5065596;28;20028;-70
2021/05/24 04:46:18;;;;;;;0.95;0.40;;;;;12.60;100551.00;;;;5065803;28;20615;-69
2021/05/24 04:48:45;;;;;;;1.38;0.50;;;;;12.70;100541.00;;;;5065428;28;20048;-70
2021/05/24 04:51:11;;;;;;;0.65;0.50;;;;;12.60;100549.00;;;;5066207;28;20033;-69
2021/05/24 04:53:37;;;;;;;1.13;0.82;;;;;12.70;100545.00;;;;5065508;28;20029;-67
2021/05/24 04:56:04;;;;;;;1.70;0.52;;;;;12.60;100560.00;;;;5065422;28;20068;-70
2021/05/24 04:58:31;;;;;;;1.38;0.55;;;;;12.60;100561.00;;;;5065796;28;20025;-71
2021/05/24 05:00:58;;;;;;;2.88;0.50;;;;;12.60;100558.00;;;;5065763;28;20021;-71
2021/05/24 05:03:24;;;;;;;3.58;0.80;;;;;12.60;100544.00;;;;5066068;28;20368;-72
2021/05/24 05:05:51;;;;;;;0.68;0.47;;;;;12.50;100553.00;;;;5066046;28;20696;-72
2021/05/24 05:08:17;;;;;;;1.90;0.60;;;;;12.50;100540.00;;;;5065030;28;20032;-70
2021/05/24 05:10:45;;;;;;;3.78;0.47;;;;;12.50;100551.00;;;;5065346;28;20024;-69
2021/05/24 05:13:12;;;;;;;2.15;0.63;;;;;12.50;100542.00;;;;5065678;28;20058;-69
2021/05/24 05:15:38;;;;;;;1.98;0.50;;;;;12.50;100537.00;;;;5065554;28;20067;-68
2021/05/24 05:18:05;;;;;;;1.48;0.50;;;;;12.40;100555.00;;;;5065543;28;20112;-69
2021/05/24 05:20:31;;;;;;;2.70;0.60;;;;;12.50;100535.00;;;;5064438;28;20116;-68
2021/05/24 05:22:58;;;;;;;2.20;0.40;;;;;12.40;100534.00;;;;5066222;28;20043;-68
2021/05/24 05:25:24;;;;;;;4.88;0.65;;;;;12.40;100526.00;;;;5065341;28;20715;-70
2021/05/24 05:27:51;;;;;;;3.28;1.10;;;;;12.30;100551.00;;;;5065612;28;20388;-70
2021/05/24 05:30:18;;;;;;;1.27;0.50;;;;;12.30;100535.00;;;;5066152;28;20122;-70
2021/05/24 05:32:45;;;;;;;4.05;0.80;;;;;12.30;100525.00;;;;5065944;28;20025;-69
2021/05/24 05:35:13;;;;;;;1.38;0.50;;;;;12.20;100524.00;;;;5065721;28;20017;-71
2021/05/24 05:37:41;;;;;;;4.28;0.70;;;;;12.10;100525.00;;;;5065075;28;20024;-68
2021/05/24 05:40:14;;;;;;;1.25;0.73;;;;;12.10;100539.00;;;;5065816;28;20023;-69
2021/05/24 05:42:41;;;;;;;0.98;0.43;;;;;12.10;100541.00;;;;5065856;28;20035;-67
2021/05/24 05:45:08;;;;;;;4.50;0.88;;;;;12.10;100530.00;;;;5065536;28;20060;-70
2021/05/24 05:47:34;;;;;;;1.15;0.60;;;;;12.10;100544.00;;;;5065673;28;20049;-68
2021/05/24 05:50:01;;;;;;;2.63;0.80;;;;;12.00;100527.00;;;;5065343;28;20372;-70
2021/05/24 05:52:27;;;;;;;1.20;0.57;;;;;12.00;100538.00;;;;5064951;28;20025;-70
2021/05/24 05:54:54;;;;;;;1.13;0.60;;;;;12.00;100524.00;;;;5065697;28;20029;-70
2021/05/24 05:57:20;;;;;;;2.22;0.90;;;;;11.90;100515.00;;;;5065915;28;20070;-69
2021/05/24 05:59:47;;;;;;;2.60;0.70;;;;;11.70;100520.00;;;;5065632;28;20038;-71
2021/05/24 06:02:14;;;;;;;2.85;0.80;;;;;11.70;100525.00;;;;5064826;28;20034;-69
2021/05/24 06:04:40;;;;;;;2.33;0.60;;;;;11.60;100513.00;;;;5065180;28;20552;-68
2021/05/24 06:07:07;;;;;;;3.63;1.10;;;;;11.60;100524.00;;;;5064823;28;20640;-70
2021/05/24 06:09:33;;;;;;;2.78;0.55;;;;;11.70;100523.00;;;;5065436;28;20120;-72
2021/05/24 06:12:01;;;;;;;3.17;0.70;;;;;11.70;100523.00;;;;5066665;28;20060;-69
2021/05/24 06:14:27;;;;;;;2.28;0.70;;;;;11.70;100515.00;;;;5068642;28;20039;-71
2021/05/24 06:16:54;;;;;;;3.30;0.82;;;;;11.60;100495.00;;;;5068588;28;20395;-71
2021/05/24 06:19:20;;;;;;;1.30;0.57;;;;;11.60;100515.00;;;;5068183;28;20086;-70
2021/05/24 06:21:47;;;;;;;3.22;0.80;;;;;11.50;100513.00;;;;5068798;28;20114;-69
2021/05/24 06:24:13;;;;;;;2.35;0.70;;;;;11.50;100499.00;;;;5068737;28;20027;-70
2021/05/24 06:26:40;;;;;;;3.17;0.70;;;;;11.50;100511.00;;;;5068859;28;20102;-69
2021/05/24 06:29:07;;;;;;;3.17;0.77;;;;;11.50;100503.00;;;;5067956;28;20119;-69
2021/05/24 06:31:33;;;;;;;3.30;0.70;;;;;11.40;100499.00;;;;5068400;28;20024;-68
2021/05/24 06:34:00;;;;;;;3.17;0.80;;;;;11.40;100496.00;;;;5067978;28;20640;-68
2021/05/24 06:36:27;;;;;;;0.52;0.40;;;;;11.50;100504.00;;;;5066872;28;20020;-69
2021/05/24 06:38:53;;;;;;;1.20;0.40;;;;;11.40;100495.00;;;;5068000;28;20487;-69
2021/05/24 06:41:20;;;;;;;1.75;0.60;;;;;11.50;100495.00;;;;5068644;28;20028;-69
2021/05/24 06:43:47;;;;;;;1.20;0.63;;;;;11.50;100496.00;;;;5068160;28;20044;-69
2021/05/24 06:46:13;;;;;;;1.67;0.50;;;;;11.40;100483.00;;;;5067829;28;20017;-70
2021/05/24 06:48:40;;;;;;;3.97;0.77;;;;;11.40;100492.00;;;;5067902;28;20041;-68
2021/05/24 06:51:06;;;;;;;1.00;0.60;;;;;11.30;100498.00;;;;5068585;28;20028;-67
2021/05/24 06:53:33;;;;;;;1.02;0.60;;;;;11.30;100499.00;;;;5067913;28;20021;-70
2021/05/24 06:55:59;;;;;;;2.35;0.80;;;;;11.30;100509.00;;;;5068031;28;20031;-71
2021/05/24 06:58:26;;;;;;;3.25;0.82;;;;;11.30;100514.00;;;;5067489;28;20021;-69
2021/05/24 07:00:52;;;;;;;4.65;0.60;;;;;11.30;100511.00;;;;5067839;28;20423;-69
2021/05/24 07:03:19;;;;;;;1.30;0.60;;;;;11.30;100520.00;;;;5068165;28;20337;-70
2021/05/24 07:05:45;;;;;;;1.48;0.70;;;;;11.30;100525.00;;;;5067818;28;20017;-69
2021/05/24 07:08:12;;;;;;;1.35;0.50;;;;;11.30;100523.00;;;;5067436;28;20075;-69
2021/05/24 07:10:38;;;;;;;1.55;0.60;;;;;11.40;100528.00;;;;5067405;28;20563;-68
2021/05/24 07:13:05;;;;;;;0.90;0.50;;;;;11.40;100521.00;;;;5067481;28;20016;-69
2021/05/24 07:15:31;;;;;;;1.10;0.52;;;;;11.50;100532.00;;;;5068558;28;20557;-70
2021/05/24 07:17:58;;;;;;;3.00;0.68;;;;;11.50;100536.00;;;;5067728;28;20040;-68
2021/05/24 07:20:24;;;;;;;1.75;0.70;;;;;11.40;100543.00;;;;5067424;28;20119;-71
2021/05/24 07:22:51;;;;;;;0.75;0.63;;;;;11.30;100544.00;;;;5067639;28;20098;-70
2021/05/24 07:25:18;;;;;;;1.08;0.63;;;;;11.20;100549.00;;;;5067769;28;20414;-71
2021/05/24 07:27:45;;;;;;;2.10;0.90;;;;;11.10;100547.00;;;;5067503;28;20064;-71
2021/05/24 07:30:12;;;;;;;1.70;0.60;;;;;11.20;100558.00;;;;5066815;28;20020;-71
2021/05/24 07:32:38;;;;;;;6.32;1.13;;;;;11.00;100536.00;;;;5067490;28;20021;-71
2021/05/24 07:35:05;;;;;;;2.83;0.90;;;;;11.00;100539.00;;;;5067309;28;20016;-70
2021/05/24 07:37:32;;;;;;;3.03;0.80;;;;;10.90;100547.00;;;;5066870;28;20028;-68
2021/05/24 07:39:59;;;;;;;1.17;0.70;;;;;10.80;100550.00;;;;5067647;28;20016;-68
2021/05/24 07:42:25;;;;;;;4.95;1.00;;;;;10.70;100560.00;;;;5067548;28;20060;-71
2021/05/24 07:44:52;;;;;;;14.68;2.13;;;;;10.70;100534.00;;;;5065138;28;20052;-69
2021/05/24 07:47:18;;;;;;;1.65;0.70;;;;;10.70;100554.00;;;;5066075;28;20037;-68
2021/05/24 07:49:46;;;;;;;1.30;0.70;;;;;10.80;100565.00;;;;5067362;28;20119;-69
2021/05/24 07:52:13;;;;;;;2.28;0.60;;;;;10.80;100552.00;;;;5066588;28;20029;-71
2021/05/24 07:54:40;;;;;;;1.00;0.80;;;;;10.80;100558.00;;;;5066508;28;20110;-71
2021/05/24 07:57:07;;;;;;;3.03;0.93;;;;;10.70;100561.00;;;;5066513;28;20036;-68
2021/05/24 07:59:34;;;;;;;2.33;1.00;;;;;10.80;100545.00;;;;5066634;28;20037;-71
2021/05/24 08:02:05;;;;;;;2.13;0.80;;;;;10.80;100554.00;;;;5066618;28;20033;-71
2021/05/24 08:04:31;;;;;;;;;;;;;10.80;100571.00;;;;5066879;28;20029;-67
2021/05/24 08:06:58;;;;;;;2.03;0.70;;;;;10.80;100567.00;;;;5065884;28;19908;-68
2021/05/24 08:09:24;;;;;;;0.68;0.60;;;;;10.80;100558.00;;;;5066470;28;20142;-71
2021/05/24 08:11:52;;;;;;;2.28;0.70;;;;;10.70;100560.00;;;;5066182;28;20581;-71
2021/05/24 08:14:19;;;;;;;1.33;0.60;;;;;10.80;100551.00;;;;5066743;28;20674;-68
2021/05/24 08:16:46;;;;;;;1.35;0.70;;;;;10.80;100552.00;;;;5066636;28;20016;-69
2021/05/24 08:19:14;;;;;;;2.15;0.50;;;;;10.80;100570.00;;;;5066364;28;20024;-70
2021/05/24 08:21:44;;;;;;;1.95;0.60;;;;;10.70;100554.00;;;;5066282;28;20060;-70
2021/05/24 08:24:12;;;;;;;5.00;0.88;;;;;10.60;100553.00;;;;5066545;28;20071;-71
2021/05/24 08:26:39;;;;;;;3.00;1.30;;;;;10.50;100557.00;;;;5065853;28;20027;-70
2021/05/24 08:29:06;;;;;;;1.95;0.80;;;;;10.50;100571.00;;;;5066183;28;20055;-71
2021/05/24 08:31:34;;;;;;;4.22;0.80;;;;;10.40;100554.00;;;;5066337;28;20536;-71
2021/05/24 08:34:01;;;;;;;7.03;0.80;;;;;10.40;100563.00;;;;5065725;28;20032;-70
2021/05/24 08:36:28;;;;;;;1.55;0.73;;;;;10.30;100566.00;;;;5066474;28;20035;-67
2021/05/24 08:38:54;;;;;;;1.30;0.60;;;;;10.20;100570.00;;;;5066000;28;21155;-71
2021/05/24 08:41:21;;;;;;;4.70;0.80;;;;;10.20;100578.00;;;;5065902;28;20017;-71
2021/05/24 08:43:48;;;;;;;2.45;0.93;;;;;10.10;100578.00;;;;5066049;28;20021;-68
2021/05/24 08:46:15;;;;;;;2.13;0.90;;;;;10.10;100583.00;;;;5066358;28;20039;-71
2021/05/24 08:48:42;;;;;;;3.20;0.95;;;;;10.20;100587.00;;;;5065974;28;20517;-70
2021/05/24 08:51:09;;;;;;;2.83;1.15;;;;;10.20;100578.00;;;;5066660;28;20025;-71
2021/05/24 08:53:39;;;;;;;8.32;1.27;;;;;10.20;100579.00;;;;5065563;28;20020;-70
2021/05/24 08:56:07;;;;;;;4.45;0.77;;;;;10.20;100588.00;;;;5065858;28;20111;-71
2021/05/24 08:58:34;;;;;;;3.47;1.42;;;;;10.30;100595.00;;;;5065584;28;20416;-69
2021/05/24 09:01:00;;;;;;;5.88;1.20;;;;;10.30;100594.00;;;;5066197;28;20111;-68
2021/05/24 09:03:32;;;;;;;3.78;1.40;;;;;10.30;100600.00;;;;5065985;28;20024;-70
2021/05/24 09:06:07;;;;;;;1.52;1.02;;;;;10.20;100591.00;;;;5065805;28;20100;-69
2021/05/24 09:08:39;;;;;;;1.90;1.00;;;;;10.20;100622.00;;;;5066119;28;20074;-67
2021/05/24 09:11:06;;;;;;;5.28;1.80;;;;;10.20;100618.00;;;;5066027;28;20116;-68
2021/05/24 09:13:35;;;;;;;3.72;1.40;;;;;10.10;100640.00;;;;5065567;28;20829;-69
2021/05/24 09:16:01;;;;;;;4.53;1.27;;;;;10.20;100637.00;;;;5065735;28;20021;-68
2021/05/24 09:18:28;;;;;;;10.15;1.80;;;;;10.30;100628.00;;;;5064118;28;20028;-68
2021/05/24 09:20:54;;;;;;;2.33;0.95;;;;;10.30;100639.00;;;;5065794;28;20550;-68
2021/05/24 09:23:24;;;;;;;1.60;1.13;;;;;10.40;100644.00;;;;5065656;28;20090;-71
2021/05/24 09:26:04;;;;;;;3.08;1.00;;;;;10.60;100660.00;;;;5065652;28;20428;-72
2021/05/24 09:28:46;;;;;;;4.25;1.05;;;;;10.60;100664.00;;;;5066372;28;20024;-68
2021/05/24 09:31:19;;;;;;;;;;;;;10.70;100665.00;;;;5066004;28;20379;-69
2021/05/24 09:34:00;;;;;;;5.90;1.92;;;;;10.70;100659.00;;;;5065091;28;19912;-69
2021/05/24 09:36:29;;;;;;;2.90;0.90;;;;;10.70;100675.00;;;;5065864;28;20020;-69
2021/05/24 09:39:09;;;;;;;3.35;0.95;;;;;10.80;100674.00;;;;5065305;28;20123;-67
2021/05/24 09:42:00;;;;;;;5.10;1.05;;;;;10.80;100672.00;;;;5064869;28;20059;-68
2021/05/24 09:44:29;;;;;;;4.10;1.05;;;;;10.70;100676.00;;;;5065554;28;20035;-68
2021/05/24 09:46:56;;;;;;;6.32;1.33;;;;;10.80;100680.00;;;;5066681;28;20518;-68
2021/05/24 09:49:28;;;;;;;5.72;0.90;;;;;10.80;100684.00;;;;5069024;28;20029;-70
2021/05/24 09:51:54;;;;;;;;;;;;;10.90;100702.00;;;;5068908;28;20035;-68
2021/05/24 09:54:26;;;;;;;3.70;1.10;;;;;10.80;100700.00;;;;5069554;28;20377;-71
2021/05/24 09:56:52;;;;;;;3.08;1.17;;;;;10.90;100711.00;;;;5068816;28;20024;-67
2021/05/24 09:59:24;;;;;;;4.78;1.33;;;;;11.00;100697.00;;;;5069469;28;20522;-68
2021/05/24 10:01:56;;;;;;;5.32;1.40;;;;;11.00;100702.00;;;;5069278;28;20070;-71
2021/05/24 10:04:29;;;;;;;1.75;0.90;;;;;11.00;100704.00;;;;5068364;28;20085;-69
2021/05/24 10:06:57;;;;;;;10.88;1.50;;;;;11.00;100719.00;;;;5068718;28;20035;-69
2021/05/24 10:09:24;;;;;;;10.35;1.92;;;;;11.00;100727.00;;;;5067258;28;20127;-69
2021/05/24 10:11:53;;;;;;;18.40;2.60;;;;;11.00;100718.00;;;;5068637;28;20425;-70
2021/05/24 10:14:24;;;;;;;4.28;1.70;;;;;11.00;100728.00;;;;5068896;28;20028;-69
2021/05/24 10:16:52;;;;;;;;;;;;;11.00;100736.00;;;;5068520;28;20024;-67
2021/05/24 10:19:21;;;;;;;7.97;2.00;;;;;11.00;100730.00;;;;5068733;28;19908;-71
2021/05/24 10:21:49;;;;;;;13.40;5.72;;;;;11.00;100744.00;;;;5069040;28;20027;-68
2021/05/24 10:24:18;;;;;;;3.33;1.40;;;;;11.20;100747.00;;;;5068190;28;20372;-70
2021/05/24 10:26:45;;;;;;;7.25;2.30;;;;;11.20;100766.00;;;;5068442;28;20025;-71
2021/05/24 10:29:12;;;;;;;9.80;7.28;;;;;11.20;100755.00;;;;5066754;28;20024;-70
2021/05/24 10:31:39;;;;;;;3.33;1.67;;;;;11.20;100741.00;;;;5068152;28;20541;-71
2021/05/24 10:34:09;;;;;;;9.73;2.25;;;;;11.20;100767.00;;;;5068223;28;20566;-69
2021/05/24 10:36:36;;;;;;;3.90;1.63;;;;;11.20;100761.00;;;;5068423;28;20028;-70
2021/05/24 10:39:20;;;;;;;6.25;1.98;;;;;11.30;100765.00;;;;5068250;28;20035;-68
2021/05/24 10:41:48;;;;;;;3.53;1.67;;;;;11.30;100776.00;;;;5067670;28;20554;-71
2021/05/24 10:44:26;;;;;;;6.88;2.10;;;;;11.40;100767.00;;;;5067824;28;20020;-69
2021/05/24 10:46:54;;;;;;;6.20;2.10;;;;;11.50;100772.00;;;;5068606;28;20652;-68
2021/05/24 10:49:23;;;;;;;8.38;1.30;;;;;11.50;100765.00;;;;5068032;28;20144;-72
2021/05/24 10:51:52;;;;;;;3.53;1.60;;;;;11.60;100770.00;;;;5068391;28;20028;-69
2021/05/24 10:54:21;;;;;;;9.98;2.72;;;;;11.70;100794.00;;;;5067632;28;20494;-69
2021/05/24 10:57:07;;;;;;;3.03;1.33;;;;;11.80;100784.00;;;;5067836;28;20059;-69
2021/05/24 10:59:46;;;;;;;2.22;0.98;;;;;11.90;100782.00;;;;5067756;28;20012;-70
2021/05/24 11:02:13;;;;;;;3.60;1.00;;;;;12.00;100786.00;;;;5067828;28;20028;-70
2021/05/24 11:04:59;;;;;;;4.60;1.42;;;;;12.00;100782.00;;;;5067303;28;20063;-70
2021/05/24 11:07:38;;;;;;;5.38;1.40;;;;;12.10;100794.00;;;;5067977;28;20111;-68
2021/05/24 11:10:17;;;;;;;5.15;1.15;;;;;12.20;100807.00;;;;5068123;28;20032;-70
2021/05/24 11:13:17;;;;;;;5.97;0.98;;;;;12.20;100808.00;;;;5068041;28;20023;-71
2021/05/24 11:15:45;;;;;;;5.22;1.20;;;;;12.20;100800.00;;;;5067271;28;20035;-69
2021/05/24 11:18:20;;;;;;;7.13;1.30;;;;;12.30;100810.00;;;;5067721;28;20038;-68
2021/05/24 11:21:18;;;;;;;5.68;1.77;;;;;13.10;100810.00;;;;5067199;28;20025;-71
2021/05/24 11:26:31;;;;;;;1.98;1.23;;;;;12.60;100833.00;;;;5067361;28;20569;-70
2021/05/24 11:29:11;;;;;;;14.95;4.85;;;;;12.60;100820.00;;;;5067953;28;20379;-68
2021/05/24 11:31:39;;;;;;;2.93;1.40;;;;;12.80;100833.00;;;;5067014;28;20052;-70
2021/05/24 11:34:10;;;;;;;2.83;1.20;;;;;13.10;100793.00;;;;5066004;28;20399;-71
2021/05/24 11:36:38;;;;;;;10.93;2.00;;;;;13.50;100793.00;;;;5066974;28;20025;-68
2021/05/24 11:39:13;;;;;;;4.30;1.45;;;;;16.30;100752.00;;;;5067211;28;20040;-69
2021/05/24 11:42:09;;;;;;;5.75;1.40;;;;;20.20;100560.00;;;;5067157;28;20038;-69
2021/05/24 11:44:43;;;;;;;10.60;1.70;;;;;21.00;100627.00;;;;5058437;28;20077;-72
2021/05/24 11:47:14;;;;;;;6.80;1.02;;;;;16.60;100822.00;;;;5066764;28;20020;-71
2021/05/24 11:49:50;;;;;;;2.53;1.20;;;;;19.80;100633.00;;;;5067026;28;20116;-72
2021/05/24 11:52:23;;;;;;;9.10;1.67;;;;;20.60;100609.00;;;;5066568;28;20024;-68
2021/05/24 11:54:50;;;;;;;1.85;1.15;;;;;21.30;100569.00;;;;5065931;28;20032;-69
2021/05/24 11:57:20;;;;;;;6.75;2.55;;;;;21.80;100580.00;;;;5066801;28;20032;-68
2021/05/24 11:59:47;;;;;;;3.65;1.27;;;;;21.20;100749.00;;;;5066734;28;20016;-70
2021/05/24 12:02:15;;;;;;;2.38;0.98;;;;;17.60;100797.00;;;;5066710;28;20028;-67
2021/05/24 12:04:45;;;;;;;8.10;1.23;;;;;19.90;100592.00;;;;5066335;28;20040;-67
2021/05/24 12:07:15;;;;;;;4.78;1.10;;;;;16.60;100603.00;;;;5066908;28;20091;-70
2021/05/24 12:09:41;;;;;;;1.98;0.65;;;;;20.60;100624.00;;;;5065273;28;20429;-68
2021/05/24 12:12:18;;;;;;;2.78;0.73;;;;;18.50;100641.00;;;;5066468;28;20025;-66
2021/05/24 12:14:50;;;;;;;1.45;0.80;;;;;21.20;100655.00;;;;5066077;28;20460;-66
2021/05/24 12:17:21;;;;;;;3.53;0.90;;;;;21.60;100590.00;;;;5065774;28;20111;-67